Time;durP1;ratioP1;P1;durP2;ratioP2;P2;SDS_P1;SDS_P2;PMS_P1;PMS_P2;Temp;Humidity;BMP_temperature;BMP_pressure;BME280_temperature;BME280_humidity;BME280_pressure;Samples;Min_cycle;Max_cycle;Signal;HPM_P1;HPM_P2
2022/09/23 00:02:12;;;;;;;;;;;17.60;99.90;;;;;;4936339;29;19915;-70
2022/09/23 00:04:41;;;;;;;;;;;17.60;99.90;;;;;;4936054;29;19941;-72
2022/09/23 00:07:07;;;;;;;;;;;17.50;99.90;;;;;;4935435;29;19926;-71
2022/09/23 00:09:34;;;;;;;;;;;17.50;99.90;;;;;;4936301;29;19946;-71
2022/09/23 00:12:01;;;;;;;;;;;17.50;99.90;;;;;;4936195;29;19961;-71
2022/09/23 00:14:27;;;;;;;;;;;17.60;99.90;;;;;;4935910;29;20002;-69
2022/09/23 00:16:54;;;;;;;;;;;17.50;99.90;;;;;;4936196;29;19921;-71
2022/09/23 00:19:21;;;;;;;;;;;17.50;99.90;;;;;;4935745;29;20009;-72
2022/09/23 00:21:48;;;;;;;;;;;17.50;99.90;;;;;;4936153;29;19914;-72
2022/09/23 00:24:14;;;;;;;;;;;17.40;99.90;;;;;;4935871;29;19911;-71
2022/09/23 00:26:41;;;;;;;;;;;17.40;99.90;;;;;;4935095;29;19911;-71
2022/09/23 00:29:08;;;;;;;;;;;17.50;99.90;;;;;;4935238;29;19919;-70
2022/09/23 00:31:34;;;;;;;;;;;17.60;99.90;;;;;;4934755;29;19915;-69
2022/09/23 00:34:01;;;;;;;;;;;17.60;99.90;;;;;;4935156;29;20277;-73
2022/09/23 00:36:30;;;;;;;;;;;17.60;99.90;;;;;;4935240;29;19911;-72
2022/09/23 00:38:57;;;;;;;;;;;17.60;99.90;;;;;;4934344;29;20007;-72
2022/09/23 00:41:24;;;;;;;;;;;17.40;99.90;;;;;;4935685;29;19921;-71
2022/09/23 00:43:52;;;;;;;;;;;17.40;99.90;;;;;;4935658;29;19911;-73
2022/09/23 00:46:25;;;;;;;;;;;17.40;99.90;;;;;;4935254;29;20259;-72
2022/09/23 00:48:56;;;;;;;;;;;17.50;99.90;;;;;;4935419;29;20359;-72
2022/09/23 00:51:24;;;;;;;;;;;17.40;99.90;;;;;;4935197;29;19993;-71
2022/09/23 00:53:51;;;;;;;;;;;17.40;99.90;;;;;;4935575;29;19921;-69
2022/09/23 00:56:19;;;;;;;;;;;17.40;99.90;;;;;;4935155;29;19926;-69
2022/09/23 00:58:46;;;;;;;;;;;17.40;99.90;;;;;;4935404;29;20043;-71
2022/09/23 01:01:13;;;;;;;;;;;17.40;99.90;;;;;;4935053;29;19980;-69
2022/09/23 01:03:42;;;;;;;;;;;17.40;99.90;;;;;;4935368;29;19911;-71
2022/09/23 01:06:09;;;;;;;;;;;17.40;99.90;;;;;;4934171;29;19931;-68
2022/09/23 01:08:36;;;;;;;;;;;17.50;99.90;;;;;;4934986;29;19910;-70
2022/09/23 01:11:21;;;;;;;;;;;17.50;99.90;;;;;;4935054;29;20399;-69
2022/09/23 01:13:55;;;;;;;;;;;17.60;99.90;;;;;;4934753;29;19915;-69
2022/09/23 01:16:34;;;;;;;;;;;17.60;99.90;;;;;;4934732;29;19914;-68
2022/09/23 01:19:09;;;;;;;;;;;17.60;99.90;;;;;;4935055;29;19922;-69
2022/09/23 01:21:36;;;;;;;;;;;17.60;99.90;;;;;;4935921;29;19998;-67
2022/09/23 01:24:11;;;;;;;;;;;17.60;99.90;;;;;;4935899;29;19915;-68
2022/09/23 01:26:47;;;;;;;;;;;17.60;99.90;;;;;;4935524;29;19950;-67
2022/09/23 01:29:16;;;;;;;;;;;17.50;99.90;;;;;;4935153;29;19911;-68
2022/09/23 01:31:55;;;;;;;;;;;17.50;99.90;;;;;;4935164;29;19915;-69
2022/09/23 01:34:25;;;;;;;;;;;17.50;99.90;;;;;;4935040;29;19911;-70
2022/09/23 01:37:12;;;;;;;;;;;17.30;99.90;;;;;;4934863;29;19965;-71
2022/09/23 01:39:44;;;;;;;;;;;17.30;99.90;;;;;;4934945;29;19910;-69
2022/09/23 01:42:23;;;;;;;;;;;17.10;99.90;;;;;;4934927;29;20355;-72
2022/09/23 01:44:52;;;;;;;;;;;16.80;99.90;;;;;;4933051;29;19919;-69
2022/09/23 01:47:25;;;;;;;;;;;16.70;99.90;;;;;;4934151;29;20325;-69
2022/09/23 01:49:52;;;;;;;;;;;16.70;99.90;;;;;;4935001;29;19918;-70
2022/09/23 01:52:47;;;;;;;;;;;16.80;99.90;;;;;;4934741;29;20355;-69
2022/09/23 01:55:24;;;;;;;;;;;16.90;99.90;;;;;;4921052;29;19911;-69
2022/09/23 01:58:05;;;;;;;;;;;16.90;99.90;;;;;;4934665;29;19966;-70
2022/09/23 02:00:35;;;;;;;;;;;16.80;99.90;;;;;;4934506;29;20342;-71
2022/09/23 02:03:06;;;;;;;;;;;16.90;99.90;;;;;;4934709;29;19916;-71
2022/09/23 02:05:37;;;;;;;;;;;17.10;99.90;;;;;;4934442;29;20290;-70
2022/09/23 02:08:11;;;;;;;;;;;17.20;99.90;;;;;;4934383;29;20312;-71
2022/09/23 02:10:46;;;;;;;;;;;17.30;99.90;;;;;;4928425;29;20334;-72
2022/09/23 02:13:33;;;;;;;;;;;17.40;99.90;;;;;;4933368;29;20352;-68
2022/09/23 02:16:02;;;;;;;;;;;17.50;99.90;;;;;;4936707;29;19918;-68
2022/09/23 02:18:45;;;;;;;;;;;17.50;99.90;;;;;;4934196;29;20278;-68
2022/09/23 02:21:13;;;;;;;;;;;17.60;99.90;;;;;;4933103;29;19919;-70
2022/09/23 02:23:49;;;;;;;;;;;17.70;99.90;;;;;;4934360;29;19914;-68
2022/09/23 02:26:21;;;;;;;;;;;17.80;99.90;;;;;;4935155;29;20456;-69
2022/09/23 02:28:51;;;;;;;;;;;17.80;99.90;;;;;;4935728;29;19921;-72
2022/09/23 02:31:18;;;;;;;;;;;17.80;99.90;;;;;;4935739;29;19921;-71
2022/09/23 02:34:01;;;;;;;;;;;17.70;99.90;;;;;;4935886;29;20438;-68
2022/09/23 02:36:28;;;;;;;;;;;17.60;99.90;;;;;;4920938;29;20334;-76
2022/09/23 02:38:57;;;;;;;;;;;17.60;99.90;;;;;;4916725;29;19974;-71
2022/09/23 02:41:31;;;;;;;;;;;17.60;99.90;;;;;;4915665;29;19974;-71
2022/09/23 02:43:58;;;;;;;;;;;17.60;99.90;;;;;;4915247;29;20330;-72
2022/09/23 02:46:25;;;;;;;;;;;17.60;99.90;;;;;;4915491;29;19919;-71
2022/09/23 02:48:55;;;;;;;;;;;17.70;99.90;;;;;;4915544;29;19918;-71
2022/09/23 02:51:27;;;;;;;;;;;17.80;99.90;;;;;;4930125;29;19996;-69
2022/09/23 02:53:55;;;;;;;;;;;18.00;99.90;;;;;;4933844;29;20017;-70
2022/09/23 02:56:24;;;;;;;;;;;18.00;99.90;;;;;;4937192;29;19911;-69
2022/09/23 02:58:52;;;;;;;;;;;18.10;99.90;;;;;;4938484;29;19931;-72
2022/09/23 03:01:31;;;;;;;;;;;18.00;99.90;;;;;;4937315;29;20390;-69
2022/09/23 03:04:09;;;;;;;;;;;18.00;99.90;;;;;;4937211;29;19919;-71
2022/09/23 03:06:52;;;;;;;;;;;18.00;99.90;;;;;;4937299;29;19915;-72
2022/09/23 03:09:31;;;;;;;;;;;17.90;99.90;;;;;;4937313;29;19911;-71
2022/09/23 03:12:19;;;;;;;;;;;18.00;99.90;;;;;;4937459;29;19923;-72
2022/09/23 03:14:47;;;;;;;;;;;18.00;99.90;;;;;;4937103;29;19990;-71
2022/09/23 03:17:19;;;;;;;;;;;18.00;99.90;;;;;;4937421;29;19919;-70
2022/09/23 03:19:53;;;;;;;;;;;18.10;99.90;;;;;;4937534;29;19918;-69
2022/09/23 03:22:22;;;;;;;;;;;18.10;99.90;;;;;;4937237;29;19911;-68
2022/09/23 03:24:50;;;;;;;;;;;18.10;99.90;;;;;;4937244;29;19957;-68
2022/09/23 03:27:18;;;;;;;;;;;18.10;99.90;;;;;;4937358;29;19915;-69
2022/09/23 03:29:47;;;;;;;;;;;18.10;99.90;;;;;;4935815;29;19998;-70
2022/09/23 03:32:15;;;;;;;;;;;18.00;99.90;;;;;;4936073;29;19915;-71
2022/09/23 03:34:42;;;;;;;;;;;17.90;99.90;;;;;;4935934;29;19911;-68
2022/09/23 03:37:21;;;;;;;;;;;17.90;99.90;;;;;;4936532;29;19922;-69
2022/09/23 03:39:51;;;;;;;;;;;17.90;99.90;;;;;;4936936;29;19915;-69
2022/09/23 03:42:22;;;;;;;;;;;17.80;99.90;;;;;;4936949;29;19938;-69
2022/09/23 03:44:52;;;;;;;;;;;17.80;99.90;;;;;;4937290;29;19922;-69
2022/09/23 03:47:20;;;;;;;;;;;17.70;99.90;;;;;;4936529;29;19967;-69
2022/09/23 03:49:47;;;;;;;;;;;17.70;99.90;;;;;;4937133;29;19950;-72
2022/09/23 03:52:15;;;;;;;;;;;17.70;99.90;;;;;;4936727;29;20009;-72
2022/09/23 03:54:43;;;;;;;;;;;17.70;99.90;;;;;;4936505;29;19910;-71
2022/09/23 03:57:10;;;;;;;;;;;17.70;99.90;;;;;;4937094;29;19922;-69
2022/09/23 03:59:37;;;;;;;;;;;17.70;99.90;;;;;;4937029;29;19954;-67
2022/09/23 04:02:06;;;;;;;;;;;17.70;99.90;;;;;;4929656;29;19915;-68
2022/09/23 04:04:33;;;;;;;;;;;17.80;99.90;;;;;;4916916;29;20009;-71
2022/09/23 04:07:00;;;;;;;;;;;17.80;99.90;;;;;;4917089;29;20367;-69
2022/09/23 04:09:27;;;;;;;;;;;17.80;99.90;;;;;;4917749;29;19967;-72
2022/09/23 04:11:53;;;;;;;;;;;17.80;99.90;;;;;;4930667;29;19915;-72
2022/09/23 04:14:21;;;;;;;;;;;17.80;99.90;;;;;;4934883;29;20345;-72
2022/09/23 04:16:48;;;;;;;;;;;17.90;99.90;;;;;;4935752;29;20393;-70
2022/09/23 04:19:14;;;;;;;;;;;18.00;99.90;;;;;;4936429;29;19911;-72
2022/09/23 04:21:42;;;;;;;;;;;18.00;99.90;;;;;;4936334;29;20002;-72
2022/09/23 04:24:09;;;;;;;;;;;18.10;99.90;;;;;;4936036;29;19986;-72
2022/09/23 04:26:37;;;;;;;;;;;18.20;99.90;;;;;;4935965;29;19910;-68
2022/09/23 04:29:03;;;;;;;;;;;18.30;99.90;;;;;;4936105;29;19958;-72
2022/09/23 04:31:31;;;;;;;;;;;18.40;99.90;;;;;;4936461;29;19992;-72
2022/09/23 04:33:58;;;;;;;;;;;18.40;99.90;;;;;;4936408;29;19918;-73
2022/09/23 04:36:24;;;;;;;;;;;18.40;99.90;;;;;;4936354;29;20278;-72
2022/09/23 04:38:51;;;;;;;;;;;18.50;99.90;;;;;;4936246;29;19982;-71
2022/09/23 04:41:18;;;;;;;;;;;18.50;99.90;;;;;;4934648;29;20401;-69
2022/09/23 04:43:45;;;;;;;;;;;18.40;99.90;;;;;;4936046;29;19915;-71
2022/09/23 04:46:12;;;;;;;;;;;18.40;99.90;;;;;;4936313;29;19934;-72
2022/09/23 04:48:40;;;;;;;;;;;18.40;99.90;;;;;;4937083;29;19922;-72
2022/09/23 04:51:09;;;;;;;;;;;18.50;99.90;;;;;;4935732;29;20267;-72
2022/09/23 04:53:36;;;;;;;;;;;18.40;99.90;;;;;;4935874;29;19918;-71
2022/09/23 04:56:08;;;;;;;;;;;18.40;99.90;;;;;;4936125;29;19915;-70
2022/09/23 04:58:35;;;;;;;;;;;18.40;99.90;;;;;;4936699;29;20381;-72
2022/09/23 05:01:12;;;;;;;;;;;18.40;99.90;;;;;;4938335;29;20488;-70
2022/09/23 05:03:39;;;;;;;;;;;18.40;99.90;;;;;;4948014;29;19915;-73
2022/09/23 05:06:06;;;;;;;;;;;18.50;99.90;;;;;;4945698;29;19911;-69
2022/09/23 05:08:33;;;;;;;;;;;18.50;99.90;;;;;;4936352;29;20298;-69
2022/09/23 05:11:01;;;;;;;;;;;18.50;99.90;;;;;;4936079;29;19911;-69
2022/09/23 05:13:28;;;;;;;;;;;18.50;99.90;;;;;;4936192;29;19910;-70
2022/09/23 05:15:58;;;;;;;;;;;18.50;99.90;;;;;;4935633;29;20455;-72
2022/09/23 05:18:25;;;;;;;;;;;18.50;99.90;;;;;;4934772;29;19923;-68
2022/09/23 05:20:55;;;;;;;;;;;18.50;99.90;;;;;;4943069;29;19915;-68
2022/09/23 05:23:22;;;;;;;;;;;18.50;99.90;;;;;;4936950;29;19918;-67
2022/09/23 05:25:55;;;;;;;;;;;18.50;99.90;;;;;;4935455;29;20038;-68
2022/09/23 05:28:21;;;;;;;;;;;18.50;99.90;;;;;;4935746;29;19925;-69
2022/09/23 05:30:48;;;;;;;;;;;18.50;99.90;;;;;;4935526;29;19914;-67
2022/09/23 05:33:15;;;;;;;;;;;18.40;99.90;;;;;;4935378;29;20381;-68
2022/09/23 05:35:45;;;;;;;;;;;18.30;99.90;;;;;;4935194;29;19949;-68
2022/09/23 05:38:12;;;;;;;;;;;18.20;99.90;;;;;;4935642;29;20271;-68
2022/09/23 05:40:39;;;;;;;;;;;18.20;99.90;;;;;;4935552;29;20391;-69
2022/09/23 05:43:05;;;;;;;;;;;18.20;99.90;;;;;;4934205;29;20002;-67
2022/09/23 05:45:32;;;;;;;;;;;18.10;99.90;;;;;;4934360;29;19962;-67
2022/09/23 05:47:58;;;;;;;;;;;18.10;99.90;;;;;;4935141;29;20001;-67
2022/09/23 05:50:25;;;;;;;;;;;18.10;99.90;;;;;;4934686;29;19950;-67
2022/09/23 05:52:52;;;;;;;;;;;18.10;99.90;;;;;;4934672;29;20077;-67
2022/09/23 05:55:19;;;;;;;;;;;18.20;99.90;;;;;;4934428;29;19911;-67
2022/09/23 05:57:45;;;;;;;;;;;18.30;99.90;;;;;;4934866;29;20286;-66
2022/09/23 06:00:12;;;;;;;;;;;18.20;99.90;;;;;;4934745;29;20017;-67
2022/09/23 06:02:39;;;;;;;;;;;18.20;99.90;;;;;;4934763;29;19911;-67
2022/09/23 06:05:05;;;;;;;;;;;18.20;99.90;;;;;;4934296;29;19911;-68
2022/09/23 06:07:32;;;;;;;;;;;18.10;99.90;;;;;;4934094;29;19926;-69
2022/09/23 06:09:59;;;;;;;;;;;18.10;99.90;;;;;;4933388;29;19911;-67
2022/09/23 06:12:25;;;;;;;;;;;18.10;99.90;;;;;;4934621;29;19910;-67
2022/09/23 06:14:53;;;;;;;;;;;18.10;99.90;;;;;;4934478;29;19915;-68
2022/09/23 06:17:19;;;;;;;;;;;18.10;99.90;;;;;;4933145;29;19919;-68
2022/09/23 06:19:46;;;;;;;;;;;18.10;99.90;;;;;;4933931;29;20004;-67
2022/09/23 06:22:15;;;;;;;;;;;18.10;99.90;;;;;;4935928;29;20274;-68
2022/09/23 06:24:42;;;;;;;;;;;18.00;99.90;;;;;;4936301;29;19966;-69
2022/09/23 06:27:09;;;;;;;;;;;18.10;99.90;;;;;;4934543;29;20263;-69
2022/09/23 06:29:35;;;;;;;;;;;18.00;99.90;;;;;;4934762;29;19911;-68
2022/09/23 06:32:03;;;;;;;;;;;18.00;99.90;;;;;;4937891;29;19915;-69
2022/09/23 06:34:30;;;;;;;;;;;17.90;99.90;;;;;;4937659;29;19957;-69
2022/09/23 06:36:56;;;;;;;;;;;17.80;99.90;;;;;;4938065;29;20062;-69
2022/09/23 06:39:23;;;;;;;;;;;17.80;99.90;;;;;;4938267;29;20266;-69
2022/09/23 06:41:50;;;;;;;;;;;17.80;99.90;;;;;;4938076;29;19911;-68
2022/09/23 06:44:16;;;;;;;;;;;17.80;99.90;;;;;;4937846;29;19910;-67
2022/09/23 06:46:43;;;;;;;;;;;17.80;99.90;;;;;;4936538;29;19915;-67
2022/09/23 06:49:11;;;;;;;;;;;17.90;99.90;;;;;;4918457;29;19966;-68
2022/09/23 06:51:39;;;;;;;;;;;18.00;99.90;;;;;;4916667;29;19911;-68
2022/09/23 06:54:05;;;;;;;;;;;17.90;99.90;;;;;;4916545;29;20319;-69
2022/09/23 06:56:32;;;;;;;;;;;18.00;99.90;;;;;;4916564;29;19911;-68
2022/09/23 06:58:58;;;;;;;;;;;18.00;99.90;;;;;;4916420;29;19919;-69
2022/09/23 07:01:25;;;;;;;;;;;18.00;99.90;;;;;;4932165;29;20026;-71
2022/09/23 07:03:53;;;;;;;;;;;18.00;99.90;;;;;;4934646;29;20380;-68
2022/09/23 07:06:19;;;;;;;;;;;18.00;99.90;;;;;;4935349;29;19942;-68
2022/09/23 07:08:47;;;;;;;;;;;18.00;99.90;;;;;;4935449;29;19919;-67
2022/09/23 07:11:14;;;;;;;;;;;18.00;99.90;;;;;;4935045;29;20348;-67
2022/09/23 07:13:41;;;;;;;;;;;18.00;99.90;;;;;;4935061;29;19915;-68
2022/09/23 07:16:08;;;;;;;;;;;18.00;99.90;;;;;;4935358;29;20389;-67
2022/09/23 07:18:36;;;;;;;;;;;18.00;99.90;;;;;;4935441;29;19929;-68
2022/09/23 07:21:06;;;;;;;;;;;18.00;99.90;;;;;;4935467;29;19917;-68
2022/09/23 07:23:32;;;;;;;;;;;18.00;99.90;;;;;;4934839;29;19914;-69
2022/09/23 07:25:59;;;;;;;;;;;18.00;99.90;;;;;;4935361;29;19915;-67
2022/09/23 07:28:27;;;;;;;;;;;17.90;99.90;;;;;;4935384;29;19914;-67
2022/09/23 07:30:55;;;;;;;;;;;17.90;99.90;;;;;;4933499;29;19961;-67
2022/09/23 07:33:22;;;;;;;;;;;17.90;99.90;;;;;;4934454;29;19915;-68
2022/09/23 07:35:49;;;;;;;;;;;17.80;99.90;;;;;;4934746;29;20489;-68
2022/09/23 07:38:16;;;;;;;;;;;17.80;99.90;;;;;;4934374;29;19978;-71
2022/09/23 07:40:42;;;;;;;;;;;17.70;99.90;;;;;;4934872;29;20006;-68
2022/09/23 07:43:09;;;;;;;;;;;17.70;99.90;;;;;;4933247;29;19919;-68
2022/09/23 07:45:37;;;;;;;;;;;17.70;99.90;;;;;;4934536;29;20023;-69
2022/09/23 07:48:04;;;;;;;;;;;17.70;99.90;;;;;;4934664;29;19914;-68
2022/09/23 07:50:31;;;;;;;;;;;17.60;99.90;;;;;;4934482;29;19928;-67
2022/09/23 07:52:58;;;;;;;;;;;17.60;99.90;;;;;;4934584;29;19942;-67
2022/09/23 07:55:25;;;;;;;;;;;17.60;99.90;;;;;;4933184;29;19919;-66
2022/09/23 07:57:51;;;;;;;;;;;17.60;99.90;;;;;;4933645;29;19922;-69
2022/09/23 08:00:18;;;;;;;;;;;17.60;99.90;;;;;;4934519;29;19982;-69
2022/09/23 08:02:45;;;;;;;;;;;17.50;99.90;;;;;;4934631;29;20369;-68
2022/09/23 08:05:11;;;;;;;;;;;17.50;99.90;;;;;;4933748;29;19915;-71
2022/09/23 08:07:38;;;;;;;;;;;17.50;99.90;;;;;;4933673;29;19997;-69
2022/09/23 08:10:05;;;;;;;;;;;17.50;99.90;;;;;;4927643;29;20363;-68
2022/09/23 08:12:32;;;;;;;;;;;17.50;99.90;;;;;;4933832;29;19966;-67
2022/09/23 08:14:59;;;;;;;;;;;17.40;99.90;;;;;;4934108;29;19981;-68
2022/09/23 08:17:26;;;;;;;;;;;17.40;99.90;;;;;;4933785;29;19919;-69
2022/09/23 08:19:53;;;;;;;;;;;17.40;99.90;;;;;;4933831;29;19997;-68
2022/09/23 08:22:19;;;;;;;;;;;17.40;99.90;;;;;;4933658;29;19915;-68
2022/09/23 08:24:46;;;;;;;;;;;17.40;99.90;;;;;;4933724;29;19915;-68
2022/09/23 08:27:13;;;;;;;;;;;17.40;99.90;;;;;;4933720;29;19910;-67
2022/09/23 08:29:39;;;;;;;;;;;17.40;99.90;;;;;;4934219;29;19977;-66
2022/09/23 08:32:06;;;;;;;;;;;17.40;99.90;;;;;;4933765;29;19923;-67
2022/09/23 08:34:34;;;;;;;;;;;17.40;99.90;;;;;;4933483;29;20416;-69
2022/09/23 08:37:01;;;;;;;;;;;17.50;99.90;;;;;;4933552;29;19962;-68
2022/09/23 08:39:27;;;;;;;;;;;17.40;99.90;;;;;;4933885;29;19929;-69
2022/09/23 08:41:57;;;;;;;;;;;17.40;99.90;;;;;;4933721;29;19911;-68
2022/09/23 08:44:27;;;;;;;;;;;17.40;99.90;;;;;;4933943;29;19919;-67
2022/09/23 08:47:07;;;;;;;;;;;17.40;99.90;;;;;;4934265;29;19915;-67
2022/09/23 08:49:45;;;;;;;;;;;17.30;99.90;;;;;;4932882;29;20294;-68
2022/09/23 08:52:16;;;;;;;;;;;17.30;99.90;;;;;;4933797;29;20457;-67
2022/09/23 08:54:42;;;;;;;;;;;17.30;99.90;;;;;;4933398;29;20302;-68
2022/09/23 08:57:30;;;;;;;;;;;17.30;99.90;;;;;;4933591;29;19911;-67
2022/09/23 08:59:57;;;;;;;;;;;17.30;99.90;;;;;;4933768;29;19926;-68
2022/09/23 09:02:23;;;;;;;;;;;17.30;99.90;;;;;;4934159;29;19915;-68
2022/09/23 09:05:09;;;;;;;;;;;17.30;99.90;;;;;;4933835;29;19915;-67
2022/09/23 09:07:37;;;;;;;;;;;17.30;99.90;;;;;;4934114;29;19926;-68
2022/09/23 09:10:05;;;;;;;;;;;17.30;99.90;;;;;;4935940;29;20005;-68
2022/09/23 09:12:40;;;;;;;;;;;17.30;99.90;;;;;;4935271;29;19950;-68
2022/09/23 09:15:27;;;;;;;;;;;17.30;99.90;;;;;;4915341;29;19919;-67
2022/09/23 09:18:12;;;;;;;;;;;17.30;99.90;;;;;;4916235;29;19926;-68
2022/09/23 09:20:57;;;;;;;;;;;17.30;99.90;;;;;;4916937;29;19938;-68
2022/09/23 09:23:33;;;;;;;;;;;17.30;99.90;;;;;;4918884;29;19915;-68
2022/09/23 09:26:04;;;;;;;;;;;17.30;99.90;;;;;;4934912;29;19911;-69
2022/09/23 09:28:35;;;;;;;;;;;17.30;99.90;;;;;;4935657;29;19911;-68
2022/09/23 09:31:21;;;;;;;;;;;17.30;99.90;;;;;;4934533;29;20409;-70
2022/09/23 09:33:56;;;;;;;;;;;17.30;99.90;;;;;;4935407;29;19918;-70
2022/09/23 09:36:23;;;;;;;;;;;17.30;99.90;;;;;;4935859;29;19911;-68
2022/09/23 09:38:50;;;;;;;;;;;17.40;99.90;;;;;;4935198;29;19923;-67
2022/09/23 09:41:20;;;;;;;;;;;17.40;99.90;;;;;;4935126;29;19965;-68
2022/09/23 09:43:56;;;;;;;;;;;17.30;99.90;;;;;;4935053;29;20290;-69
2022/09/23 09:46:43;;;;;;;;;;;17.40;99.90;;;;;;4935404;29;19938;-68
2022/09/23 09:49:27;;;;;;;;;;;17.40;99.90;;;;;;4916377;29;19950;-69
2022/09/23 09:52:21;;;;;;;;;;;17.40;99.90;;;;;;4916399;29;20024;-69
2022/09/23 09:54:49;;;;;;;;;;;17.40;99.90;;;;;;4915685;29;19915;-68
2022/09/23 09:57:36;;;;;;;;;;;17.40;99.90;;;;;;4915990;29;19927;-67
2022/09/23 10:00:21;;;;;;;;;;;17.40;99.90;;;;;;4921516;29;19927;-67
2022/09/23 10:02:55;;;;;;;;;;;17.40;99.90;;;;;;4934383;29;19925;-68
2022/09/23 10:05:27;;;;;;;;;;;17.40;99.90;;;;;;4935435;29;19918;-68
2022/09/23 10:07:55;;;;;;;;;;;17.30;99.90;;;;;;4938459;29;20255;-69
2022/09/23 10:10:24;;;;;;;;;;;17.30;99.90;;;;;;4938200;29;20057;-68
2022/09/23 10:12:51;;;;;;;;;;;17.30;99.90;;;;;;4939129;29;19997;-69
2022/09/23 10:15:41;;;;;;;;;;;17.30;99.90;;;;;;4938199;29;19919;-69
2022/09/23 10:18:42;;;;;;;;;;;17.30;99.90;;;;;;4939139;29;19927;-68
2022/09/23 10:21:11;;;;;;;;;;;17.20;99.90;;;;;;4927971;29;19915;-67
2022/09/23 10:23:45;;;;;;;;;;;17.20;99.90;;;;;;4948808;29;19914;-68
2022/09/23 10:26:14;;;;;;;;;;;17.20;99.90;;;;;;4941341;29;19915;-68
2022/09/23 10:28:43;;;;;;;;;;;17.20;99.90;;;;;;4939284;29;20294;-69
2022/09/23 10:31:14;;;;;;;;;;;17.20;99.90;;;;;;4938523;29;19915;-68
2022/09/23 10:33:49;;;;;;;;;;;17.20;99.90;;;;;;4939036;29;19915;-68
2022/09/23 10:36:18;;;;;;;;;;;17.20;99.90;;;;;;4939379;29;19927;-68
2022/09/23 10:38:47;;;;;;;;;;;17.20;99.90;;;;;;4938005;29;20325;-67
2022/09/23 10:47:13;;;;;;;;;;;17.20;99.90;;;;;;4953474;29;19935;-68
2022/09/23 10:49:54;;;;;;;;;;;17.20;99.90;;;;;;4956528;29;19934;-68
2022/09/23 10:52:56;;;;;;;;;;;17.20;99.90;;;;;;4954938;29;20341;-68
2022/09/23 10:55:23;;;;;;;;;;;17.20;99.90;;;;;;4883891;29;19922;-68
2022/09/23 10:58:03;;;;;;;;;;;17.20;99.90;;;;;;4926584;29;20424;-68
2022/09/23 11:00:35;;;;;;;;;;;17.20;99.90;;;;;;4936511;29;19930;-68
2022/09/23 11:03:08;;;;;;;;;;;17.20;99.90;;;;;;4936353;29;19926;-68
2022/09/23 11:05:44;;;;;;;;;;;17.10;99.90;;;;;;4937010;29;19911;-68
2022/09/23 11:08:26;;;;;;;;;;;17.10;99.90;;;;;;4936539;29;19911;-68
2022/09/23 11:10:54;;;;;;;;;;;17.10;99.90;;;;;;4935659;29;19911;-69
2022/09/23 11:13:34;;;;;;;;;;;17.10;99.90;;;;;;4935801;29;19921;-67
2022/09/23 11:16:01;;;;;;;;;;;17.10;99.90;;;;;;4936411;29;19950;-69
2022/09/23 11:18:46;;;;;;;;;;;17.10;99.90;;;;;;4936358;29;19985;-69
2022/09/23 11:21:19;;;;;;;;;;;17.10;99.90;;;;;;4936495;29;19915;-71
2022/09/23 11:23:47;;;;;;;;;;;17.10;99.90;;;;;;4935703;29;19911;-71
2022/09/23 11:26:13;;;;;;;;;;;17.00;99.90;;;;;;4934170;29;19911;-70
2022/09/23 11:28:46;;;;;;;;;;;17.00;99.90;;;;;;4934495;29;20286;-69
2022/09/23 11:31:28;;;;;;;;;;;17.00;99.90;;;;;;4935760;29;19917;-69
2022/09/23 11:34:01;;;;;;;;;;;17.00;99.90;;;;;;4934580;29;19937;-72
2022/09/23 11:36:33;;;;;;;;;;;16.90;99.90;;;;;;4934755;29;19919;-69
2022/09/23 11:39:02;;;;;;;;;;;16.90;99.90;;;;;;4935206;29;20017;-71
2022/09/23 11:41:34;;;;;;;;;;;16.90;99.90;;;;;;4934997;29;20013;-69
2022/09/23 11:44:16;;;;;;;;;;;16.80;99.90;;;;;;4935008;29;19986;-71
2022/09/23 11:46:49;;;;;;;;;;;16.80;99.90;;;;;;4934553;29;19929;-67
2022/09/23 11:49:19;;;;;;;;;;;16.70;99.90;;;;;;4932715;29;20385;-69
2022/09/23 11:51:56;;;;;;;;;;;16.70;99.90;;;;;;4934018;29;19970;-67
2022/09/23 11:54:25;;;;;;;;;;;16.70;99.90;;;;;;4934615;29;19911;-67
2022/09/23 11:56:58;;;;;;;;;;;16.60;99.90;;;;;;4922833;29;19916;-68
2022/09/23 11:59:32;;;;;;;;;;;16.60;99.90;;;;;;4804854;29;3531251;-69
2022/09/23 12:02:02;;;;;;;;;;;16.60;99.90;;;;;;4916258;29;19919;-69
2022/09/23 12:04:43;;;;;;;;;;;16.60;99.90;;;;;;4915304;29;20375;-68
2022/09/23 12:07:13;;;;;;;;;;;16.60;99.90;;;;;;4915699;29;19918;-70
2022/09/23 12:09:47;;;;;;;;;;;16.60;99.90;;;;;;4916116;29;19963;-69
2022/09/23 12:12:25;;;;;;;;;;;16.60;99.90;;;;;;4931906;29;19918;-72
2022/09/23 12:14:54;;;;;;;;;;;16.60;99.90;;;;;;4934691;29;19915;-73
2022/09/23 12:17:34;;;;;;;;;;;16.60;99.90;;;;;;4933823;29;20352;-75
2022/09/23 12:20:03;;;;;;;;;;;16.60;99.90;;;;;;4935132;29;19911;-74
2022/09/23 12:22:30;;;;;;;;;;;16.60;99.90;;;;;;4930284;29;19911;-73
2022/09/23 12:25:20;;;;;;;;;;;16.60;99.90;;;;;;4914056;29;19918;-72
2022/09/23 12:27:54;;;;;;;;;;;16.60;99.90;;;;;;4909905;29;19915;-72
2022/09/23 12:30:26;;;;;;;;;;;16.70;99.90;;;;;;4916078;29;20552;-73
2022/09/23 12:33:07;;;;;;;;;;;16.60;99.90;;;;;;4914630;29;20426;-73
2022/09/23 12:35:40;;;;;;;;;;;16.60;99.90;;;;;;4914547;29;19915;-74
2022/09/23 12:38:29;;;;;;;;;;;16.60;99.90;;;;;;4915074;29;20388;-73
2022/09/23 12:40:56;;;;;;;;;;;16.60;99.90;;;;;;4910223;29;19969;-75
2022/09/23 12:43:30;;;;;;;;;;;16.60;99.90;;;;;;4914990;29;20371;-74
2022/09/23 12:46:16;;;;;;;;;;;16.60;99.90;;;;;;4915738;29;19919;-74
2022/09/23 12:48:44;;;;;;;;;;;16.60;99.90;;;;;;4915760;29;19966;-73
2022/09/23 12:51:18;;;;;;;;;;;16.60;99.90;;;;;;4914548;29;19912;-73
2022/09/23 12:53:53;;;;;;;;;;;16.60;99.90;;;;;;4915356;29;19915;-73
2022/09/23 12:56:25;;;;;;;;;;;16.50;99.90;;;;;;4915188;29;20062;-73
2022/09/23 12:59:12;;;;;;;;;;;16.50;99.90;;;;;;4915257;29;19919;-69
2022/09/23 13:01:40;;;;;;;;;;;16.50;99.90;;;;;;4877667;29;19930;-70
2022/09/23 13:07:14;;;;;;;;;;;16.50;99.90;;;;;;4876970;29;19981;-69
2022/09/23 13:09:42;;;;;;;;;;;16.50;99.90;;;;;;4877308;29;19919;-69
2022/09/23 13:12:28;;;;;;;;;;;16.40;99.90;;;;;;4893360;29;19963;-69
2022/09/23 13:14:56;;;;;;;;;;;16.40;99.90;;;;;;4895541;29;20030;-69
2022/09/23 13:17:29;;;;;;;;;;;16.50;99.90;;;;;;4894492;29;19945;-69
2022/09/23 13:20:03;;;;;;;;;;;16.50;99.90;;;;;;4894555;29;19923;-70
2022/09/23 13:22:41;;;;;;;;;;;16.50;99.90;;;;;;4895391;29;19942;-69
2022/09/23 13:25:21;;;;;;;;;;;16.50;99.90;;;;;;4894971;29;20304;-69
2022/09/23 13:27:52;;;;;;;;;;;16.50;99.90;;;;;;4895550;29;19967;-70
2022/09/23 13:30:23;;;;;;;;;;;16.40;99.90;;;;;;4895362;29;19919;-69
2022/09/23 13:32:54;;;;;;;;;;;16.50;99.90;;;;;;4902848;29;19962;-70
2022/09/23 13:35:31;;;;;;;;;;;16.50;99.90;;;;;;4912808;29;20348;-68
2022/09/23 13:37:58;;;;;;;;;;;16.50;99.90;;;;;;4895533;29;19919;-68
2022/09/23 13:40:28;;;;;;;;;;;16.50;99.90;;;;;;4895554;29;19911;-68
2022/09/23 13:43:05;;;;;;;;;;;16.50;99.90;;;;;;4894887;29;19942;-68
2022/09/23 13:45:37;;;;;;;;;;;16.50;99.90;;;;;;4895426;29;19916;-68
2022/09/23 13:48:06;;;;;;;;;;;16.50;99.90;;;;;;4895277;29;19971;-68
2022/09/23 13:50:34;;;;;;;;;;;16.60;99.90;;;;;;4895146;29;19912;-68
2022/09/23 13:53:02;;;;;;;;;;;16.60;99.90;;;;;;4894340;29;19919;-67
2022/09/23 13:55:36;;;;;;;;;;;16.60;99.90;;;;;;4893947;29;20305;-68
2022/09/23 13:58:04;;;;;;;;;;;16.60;99.90;;;;;;4895334;29;19919;-68
2022/09/23 14:00:36;;;;;;;;;;;16.60;99.90;;;;;;4919740;29;20018;-67
2022/09/23 14:03:15;;;;;;;;;;;16.60;99.90;;;;;;4932100;29;19919;-69
2022/09/23 14:05:45;;;;;;;;;;;16.60;99.90;;;;;;4932513;29;19911;-69
2022/09/23 14:08:12;;;;;;;;;;;16.60;99.90;;;;;;4932655;29;20349;-68
2022/09/23 14:10:43;;;;;;;;;;;16.60;99.90;;;;;;4932915;29;19938;-68
2022/09/23 14:13:17;;;;;;;;;;;16.60;99.90;;;;;;4932441;29;19914;-69
2022/09/23 14:15:45;;;;;;;;;;;16.60;99.90;;;;;;4933092;29;20282;-72
2022/09/23 14:18:18;;;;;;;;;;;16.60;99.90;;;;;;4933108;29;19918;-70
2022/09/23 14:20:46;;;;;;;;;;;16.60;99.90;;;;;;4933141;29;20347;-69
2022/09/23 14:23:15;;;;;;;;;;;16.60;99.90;;;;;;4932099;29;20255;-69
2022/09/23 14:25:46;;;;;;;;;;;16.60;99.90;;;;;;4932882;29;19921;-69
2022/09/23 14:28:20;;;;;;;;;;;16.60;99.90;;;;;;4932967;29;19911;-69
2022/09/23 14:30:50;;;;;;;;;;;16.70;99.90;;;;;;4932900;29;19915;-69
2022/09/23 14:33:21;;;;;;;;;;;16.70;99.90;;;;;;4932290;29;20424;-69
2022/09/23 14:35:50;;;;;;;;;;;16.70;99.90;;;;;;4932293;29;19915;-68
2022/09/23 14:41:16;;;;;;;;;;;16.70;99.90;;;;;;4932924;29;20131;-69
2022/09/23 14:43:47;;;;;;;;;;;16.70;99.90;;;;;;4932563;29;19959;-69
2022/09/23 14:46:18;;;;;;;;;;;16.70;99.90;;;;;;4932824;29;19915;-70
2022/09/23 14:48:56;;;;;;;;;;;16.70;99.90;;;;;;4931624;29;19962;-69
2022/09/23 14:51:28;;;;;;;;;;;16.70;99.90;;;;;;4932567;29;19915;-68